createdAt,value
2023-03-22T00:00:30.790Z,14.30
2023-03-22T00:10:32.610Z,12.80
2023-03-22T00:20:36.007Z,14.20
2023-03-22T00:30:37.721Z,17.27
2023-03-22T00:40:40.293Z,14.07
2023-03-22T00:50:41.955Z,12.63
2023-03-22T01:00:44.949Z,12.50
2023-03-22T01:10:46.631Z,12.03
2023-03-22T01:20:48.020Z,12.52
2023-03-22T01:30:50.966Z,11.90
2023-03-22T01:40:52.407Z,12.13
2023-03-22T01:51:02.985Z,13.27
2023-03-22T02:01:06.352Z,11.33
2023-03-22T02:11:11.239Z,14.70
2023-03-22T02:21:18.487Z,12.65
2023-03-22T02:31:26.088Z,12.60
2023-03-22T02:41:45.998Z,12.87
2023-03-22T02:51:55.718Z,12.43
2023-03-22T03:02:00.898Z,12.20
2023-03-22T03:12:02.470Z,14.43
2023-03-22T03:22:14.164Z,15.03
2023-03-22T03:32:28.433Z,14.88
2023-03-22T03:42:30.476Z,13.60
2023-03-22T03:52:32.302Z,14.03
2023-03-22T04:02:35.240Z,12.30
2023-03-22T04:12:36.802Z,14.75
2023-03-22T04:22:38.952Z,12.53
2023-03-22T04:32:40.392Z,13.00
2023-03-22T04:42:43.180Z,15.73
2023-03-22T04:52:44.553Z,12.27
2023-03-22T05:02:46.020Z,12.37
2023-03-22T05:12:47.723Z,13.60
2023-03-22T05:22:50.582Z,11.03
2023-03-22T05:32:57.270Z,13.43
2023-03-22T05:42:58.880Z,12.68
2023-03-22T05:53:00.707Z,11.98
2023-03-22T06:03:03.863Z,11.50
2023-03-22T06:13:05.521Z,14.17
2023-03-22T06:23:07.854Z,9.98
2023-03-22T06:33:09.426Z,11.63
2023-03-22T06:43:10.955Z,9.57
2023-03-22T06:53:12.366Z,10.13
2023-03-22T07:03:13.832Z,10.33
2023-03-22T07:13:15.250Z,6.93
2023-03-22T07:23:17.516Z,9.27
2023-03-22T07:33:18.893Z,9.55
2023-03-22T07:43:21.213Z,12.13
2023-03-22T07:53:22.753Z,9.47
2023-03-22T08:03:24.344Z,9.00
2023-03-22T08:13:25.913Z,7.57
2023-03-22T08:23:40.470Z,10.60
2023-03-22T08:33:43.382Z,7.47
2023-03-22T08:43:44.894Z,6.53
2023-03-22T08:53:47.506Z,6.17
2023-03-22T09:03:48.984Z,5.57
2023-03-22T09:13:51.238Z,6.30
2023-03-22T09:23:52.625Z,7.80
2023-03-22T09:33:54.005Z,7.40
2023-03-22T09:43:59.658Z,8.98
2023-03-22T09:54:01.803Z,6.40
2023-03-22T10:04:34.389Z,5.63
2023-03-22T10:14:40.294Z,6.22
2023-03-22T10:24:45.594Z,6.83
2023-03-22T10:34:47.326Z,7.47
2023-03-22T10:44:53.202Z,11.50
2023-03-22T10:54:59.070Z,7.72
2023-03-22T11:05:05.838Z,6.17
2023-03-22T11:15:20.519Z,5.37
2023-03-22T11:25:27.815Z,7.82
2023-03-22T11:35:31.201Z,6.27
2023-03-22T11:45:36.794Z,5.53
2023-03-22T11:55:38.448Z,16.33
2023-03-22T12:05:44.188Z,8.77
2023-03-22T12:15:52.684Z,6.50
2023-03-22T12:26:02.357Z,9.77
2023-03-22T12:36:06.822Z,5.75
2023-03-22T12:46:13.461Z,5.87
2023-03-22T12:56:18.967Z,8.33
2023-03-22T13:06:43.998Z,6.57
2023-03-22T13:16:56.079Z,7.43
2023-03-22T13:26:59.055Z,5.60
2023-03-22T13:37:03.591Z,9.77
2023-03-22T13:47:09.010Z,8.63
2023-03-22T13:57:38.763Z,7.80
2023-03-22T14:07:46.916Z,8.02
2023-03-22T14:17:54.079Z,4.43
